sensor_id;sensor_type;location;lat;lon;timestamp;P1;durP1;ratioP1;P2;durP2;ratioP2
21192;SDS011;10754;51.106;7.164;2023-06-04T00:01:03;0.60;;;0.50;;
21192;SDS011;10754;51.106;7.164;2023-06-04T00:03:30;0.68;;;0.65;;
21192;SDS011;10754;51.106;7.164;2023-06-04T00:05:55;0.65;;;0.50;;
21192;SDS011;10754;51.106;7.164;2023-06-04T00:08:21;1.95;;;0.65;;
21192;SDS011;10754;51.106;7.164;2023-06-04T00:10:46;1.00;;;0.57;;
21192;SDS011;10754;51.106;7.164;2023-06-04T00:13:12;0.60;;;0.47;;
21192;SDS011;10754;51.106;7.164;2023-06-04T00:15:38;0.55;;;0.52;;
21192;SDS011;10754;51.106;7.164;2023-06-04T00:18:03;1.10;;;0.73;;
21192;SDS011;10754;51.106;7.164;2023-06-04T00:20:29;0.70;;;0.63;;
21192;SDS011;10754;51.106;7.164;2023-06-04T00:22:54;0.75;;;0.57;;
21192;SDS011;10754;51.106;7.164;2023-06-04T00:25:20;1.23;;;0.80;;
21192;SDS011;10754;51.106;7.164;2023-06-04T00:27:45;1.00;;;0.60;;
21192;SDS011;10754;51.106;7.164;2023-06-04T00:30:11;2.60;;;0.70;;
21192;SDS011;10754;51.106;7.164;2023-06-04T00:32:37;3.55;;;0.88;;
21192;SDS011;10754;51.106;7.164;2023-06-04T00:35:03;0.73;;;0.60;;
21192;SDS011;10754;51.106;7.164;2023-06-04T00:37:28;0.70;;;0.65;;
21192;SDS011;10754;51.106;7.164;2023-06-04T00:39:54;0.90;;;0.70;;
21192;SDS011;10754;51.106;7.164;2023-06-04T00:42:20;1.25;;;0.50;;
21192;SDS011;10754;51.106;7.164;2023-06-04T00:44:46;0.63;;;0.60;;
21192;SDS011;10754;51.106;7.164;2023-06-04T00:47:13;1.00;;;0.60;;
21192;SDS011;10754;51.106;7.164;2023-06-04T00:49:39;0.80;;;0.55;;
21192;SDS011;10754;51.106;7.164;2023-06-04T00:52:06;0.88;;;0.60;;
21192;SDS011;10754;51.106;7.164;2023-06-04T00:54:36;1.63;;;0.70;;
21192;SDS011;10754;51.106;7.164;2023-06-04T00:57:03;0.65;;;0.40;;
21192;SDS011;10754;51.106;7.164;2023-06-04T00:59:29;0.70;;;0.60;;
21192;SDS011;10754;51.106;7.164;2023-06-04T01:02:11;1.00;;;0.70;;
21192;SDS011;10754;51.106;7.164;2023-06-04T01:04:49;0.82;;;0.55;;
21192;SDS011;10754;51.106;7.164;2023-06-04T01:07:27;0.80;;;0.50;;
21192;SDS011;10754;51.106;7.164;2023-06-04T01:09:53;1.90;;;0.60;;
21192;SDS011;10754;51.106;7.164;2023-06-04T01:12:20;1.20;;;0.75;;
21192;SDS011;10754;51.106;7.164;2023-06-04T01:14:45;0.60;;;0.50;;
21192;SDS011;10754;51.106;7.164;2023-06-04T01:17:17;0.85;;;0.68;;
21192;SDS011;10754;51.106;7.164;2023-06-04T01:22:35;0.88;;;0.63;;
21192;SDS011;10754;51.106;7.164;2023-06-04T01:25:39;0.70;;;0.50;;
21192;SDS011;10754;51.106;7.164;2023-06-04T01:28:07;0.80;;;0.68;;
21192;SDS011;10754;51.106;7.164;2023-06-04T01:30:35;0.77;;;0.50;;
21192;SDS011;10754;51.106;7.164;2023-06-04T01:33:07;1.50;;;0.57;;
21192;SDS011;10754;51.106;7.164;2023-06-04T01:35:35;1.08;;;0.70;;
21192;SDS011;10754;51.106;7.164;2023-06-04T01:38:01;1.73;;;0.70;;
21192;SDS011;10754;51.106;7.164;2023-06-04T01:40:26;1.38;;;0.60;;
21192;SDS011;10754;51.106;7.164;2023-06-04T01:42:52;4.07;;;0.80;;
21192;SDS011;10754;51.106;7.164;2023-06-04T01:45:18;0.80;;;0.60;;
21192;SDS011;10754;51.106;7.164;2023-06-04T01:47:45;1.40;;;0.80;;
21192;SDS011;10754;51.106;7.164;2023-06-04T01:50:11;0.47;;;0.38;;
21192;SDS011;10754;51.106;7.164;2023-06-04T01:52:36;1.40;;;0.50;;
21192;SDS011;10754;51.106;7.164;2023-06-04T01:55:03;0.63;;;0.50;;
21192;SDS011;10754;51.106;7.164;2023-06-04T01:57:33;0.70;;;0.50;;
21192;SDS011;10754;51.106;7.164;2023-06-04T02:00:00;0.82;;;0.55;;
21192;SDS011;10754;51.106;7.164;2023-06-04T02:02:25;3.33;;;0.80;;
21192;SDS011;10754;51.106;7.164;2023-06-04T02:04:51;0.80;;;0.70;;
21192;SDS011;10754;51.106;7.164;2023-06-04T02:07:18;0.73;;;0.70;;
21192;SDS011;10754;51.106;7.164;2023-06-04T02:09:47;1.38;;;0.63;;
21192;SDS011;10754;51.106;7.164;2023-06-04T02:12:13;1.20;;;0.50;;
21192;SDS011;10754;51.106;7.164;2023-06-04T02:14:38;1.15;;;0.70;;
21192;SDS011;10754;51.106;7.164;2023-06-04T02:17:06;1.08;;;0.60;;
21192;SDS011;10754;51.106;7.164;2023-06-04T02:19:37;1.52;;;0.50;;
21192;SDS011;10754;51.106;7.164;2023-06-04T02:22:04;3.08;;;0.63;;
21192;SDS011;10754;51.106;7.164;2023-06-04T02:24:30;2.05;;;0.60;;
21192;SDS011;10754;51.106;7.164;2023-06-04T02:26:56;0.50;;;0.40;;
21192;SDS011;10754;51.106;7.164;2023-06-04T02:29:21;1.00;;;0.50;;
21192;SDS011;10754;51.106;7.164;2023-06-04T02:31:47;2.15;;;0.75;;
21192;SDS011;10754;51.106;7.164;2023-06-04T02:34:12;2.97;;;0.60;;
21192;SDS011;10754;51.106;7.164;2023-06-04T02:36:38;1.02;;;0.77;;
21192;SDS011;10754;51.106;7.164;2023-06-04T02:39:03;0.98;;;0.60;;
21192;SDS011;10754;51.106;7.164;2023-06-04T02:41:29;0.90;;;0.60;;
21192;SDS011;10754;51.106;7.164;2023-06-04T02:43:54;0.90;;;0.55;;
21192;SDS011;10754;51.106;7.164;2023-06-04T02:46:20;3.50;;;0.88;;
21192;SDS011;10754;51.106;7.164;2023-06-04T02:48:45;1.00;;;0.50;;
21192;SDS011;10754;51.106;7.164;2023-06-04T02:51:11;0.63;;;0.50;;
21192;SDS011;10754;51.106;7.164;2023-06-04T02:53:36;1.20;;;0.70;;
21192;SDS011;10754;51.106;7.164;2023-06-04T02:56:02;0.60;;;0.50;;
21192;SDS011;10754;51.106;7.164;2023-06-04T02:58:27;1.00;;;0.57;;
21192;SDS011;10754;51.106;7.164;2023-06-04T03:00:53;0.88;;;0.50;;
21192;SDS011;10754;51.106;7.164;2023-06-04T03:03:19;1.17;;;0.77;;
21192;SDS011;10754;51.106;7.164;2023-06-04T03:05:45;2.47;;;0.55;;
21192;SDS011;10754;51.106;7.164;2023-06-04T03:08:11;0.55;;;0.55;;
21192;SDS011;10754;51.106;7.164;2023-06-04T03:10:36;0.98;;;0.40;;
21192;SDS011;10754;51.106;7.164;2023-06-04T03:13:02;1.85;;;0.57;;
21192;SDS011;10754;51.106;7.164;2023-06-04T03:15:28;1.65;;;0.60;;
21192;SDS011;10754;51.106;7.164;2023-06-04T03:17:54;1.25;;;0.70;;
21192;SDS011;10754;51.106;7.164;2023-06-04T03:20:19;1.10;;;0.55;;
21192;SDS011;10754;51.106;7.164;2023-06-04T03:22:49;0.70;;;0.57;;
21192;SDS011;10754;51.106;7.164;2023-06-04T03:25:15;1.58;;;0.80;;
21192;SDS011;10754;51.106;7.164;2023-06-04T03:27:41;1.25;;;0.60;;
21192;SDS011;10754;51.106;7.164;2023-06-04T03:30:06;0.63;;;0.55;;
21192;SDS011;10754;51.106;7.164;2023-06-04T03:32:32;2.22;;;0.73;;
21192;SDS011;10754;51.106;7.164;2023-06-04T03:34:59;1.27;;;0.68;;
21192;SDS011;10754;51.106;7.164;2023-06-04T03:37:25;0.57;;;0.55;;
21192;SDS011;10754;51.106;7.164;2023-06-04T03:39:51;1.33;;;0.70;;
21192;SDS011;10754;51.106;7.164;2023-06-04T03:42:17;2.58;;;0.80;;
21192;SDS011;10754;51.106;7.164;2023-06-04T03:44:43;1.85;;;0.50;;
21192;SDS011;10754;51.106;7.164;2023-06-04T03:47:09;1.25;;;0.60;;
21192;SDS011;10754;51.106;7.164;2023-06-04T03:49:34;1.48;;;0.88;;
21192;SDS011;10754;51.106;7.164;2023-06-04T03:52:00;0.90;;;0.77;;
21192;SDS011;10754;51.106;7.164;2023-06-04T03:54:25;1.58;;;0.60;;
21192;SDS011;10754;51.106;7.164;2023-06-04T03:56:51;2.13;;;0.90;;
21192;SDS011;10754;51.106;7.164;2023-06-04T03:59:16;0.85;;;0.60;;
21192;SDS011;10754;51.106;7.164;2023-06-04T04:01:42;1.17;;;0.70;;
21192;SDS011;10754;51.106;7.164;2023-06-04T04:04:08;0.80;;;0.60;;
21192;SDS011;10754;51.106;7.164;2023-06-04T04:06:34;1.35;;;0.70;;
21192;SDS011;10754;51.106;7.164;2023-06-04T04:09:00;3.03;;;0.85;;
21192;SDS011;10754;51.106;7.164;2023-06-04T04:11:28;3.13;;;0.93;;
21192;SDS011;10754;51.106;7.164;2023-06-04T04:13:53;0.90;;;0.80;;
21192;SDS011;10754;51.106;7.164;2023-06-04T04:16:19;1.45;;;0.90;;
21192;SDS011;10754;51.106;7.164;2023-06-04T04:18:44;2.42;;;0.60;;
21192;SDS011;10754;51.106;7.164;2023-06-04T04:21:10;1.50;;;0.77;;
21192;SDS011;10754;51.106;7.164;2023-06-04T04:23:37;0.82;;;0.63;;
21192;SDS011;10754;51.106;7.164;2023-06-04T04:26:03;1.67;;;0.60;;
21192;SDS011;10754;51.106;7.164;2023-06-04T04:28:29;1.40;;;0.63;;
21192;SDS011;10754;51.106;7.164;2023-06-04T04:30:55;1.38;;;0.65;;
21192;SDS011;10754;51.106;7.164;2023-06-04T04:33:27;1.02;;;0.60;;
21192;SDS011;10754;51.106;7.164;2023-06-04T04:35:57;2.53;;;1.13;;
21192;SDS011;10754;51.106;7.164;2023-06-04T04:38:24;1.15;;;0.60;;
21192;SDS011;10754;51.106;7.164;2023-06-04T04:40:50;1.20;;;0.80;;
21192;SDS011;10754;51.106;7.164;2023-06-04T04:43:17;0.88;;;0.60;;
21192;SDS011;10754;51.106;7.164;2023-06-04T04:45:53;1.60;;;1.00;;
21192;SDS011;10754;51.106;7.164;2023-06-04T04:48:18;2.47;;;1.05;;
21192;SDS011;10754;51.106;7.164;2023-06-04T04:50:44;0.80;;;0.63;;
21192;SDS011;10754;51.106;7.164;2023-06-04T04:53:09;0.98;;;0.70;;
21192;SDS011;10754;51.106;7.164;2023-06-04T04:55:35;2.78;;;0.95;;
21192;SDS011;10754;51.106;7.164;2023-06-04T04:58:00;2.38;;;1.08;;
21192;SDS011;10754;51.106;7.164;2023-06-04T05:00:26;0.95;;;0.60;;
21192;SDS011;10754;51.106;7.164;2023-06-04T05:02:52;1.92;;;0.85;;
21192;SDS011;10754;51.106;7.164;2023-06-04T05:05:17;2.58;;;1.15;;
21192;SDS011;10754;51.106;7.164;2023-06-04T05:07:43;1.52;;;0.88;;
21192;SDS011;10754;51.106;7.164;2023-06-04T05:10:08;1.27;;;0.80;;
21192;SDS011;10754;51.106;7.164;2023-06-04T05:12:34;1.25;;;0.73;;
21192;SDS011;10754;51.106;7.164;2023-06-04T05:15:00;1.02;;;0.80;;
21192;SDS011;10754;51.106;7.164;2023-06-04T05:17:25;1.30;;;0.77;;
21192;SDS011;10754;51.106;7.164;2023-06-04T05:19:55;1.00;;;0.90;;
21192;SDS011;10754;51.106;7.164;2023-06-04T05:22:36;2.90;;;0.70;;
21192;SDS011;10754;51.106;7.164;2023-06-04T05:25:02;3.63;;;0.93;;
21192;SDS011;10754;51.106;7.164;2023-06-04T05:27:28;1.23;;;0.80;;
21192;SDS011;10754;51.106;7.164;2023-06-04T05:29:53;1.92;;;0.82;;
21192;SDS011;10754;51.106;7.164;2023-06-04T05:32:19;1.02;;;0.80;;
21192;SDS011;10754;51.106;7.164;2023-06-04T05:34:47;1.55;;;0.80;;
21192;SDS011;10754;51.106;7.164;2023-06-04T05:37:13;1.00;;;0.90;;
21192;SDS011;10754;51.106;7.164;2023-06-04T05:39:41;0.88;;;0.70;;
21192;SDS011;10754;51.106;7.164;2023-06-04T05:42:07;2.30;;;1.02;;
21192;SDS011;10754;51.106;7.164;2023-06-04T05:44:33;1.63;;;1.20;;
21192;SDS011;10754;51.106;7.164;2023-06-04T05:46:58;1.90;;;1.23;;
21192;SDS011;10754;51.106;7.164;2023-06-04T05:49:24;1.70;;;1.10;;
21192;SDS011;10754;51.106;7.164;2023-06-04T05:51:50;2.28;;;1.02;;
21192;SDS011;10754;51.106;7.164;2023-06-04T05:54:15;2.05;;;1.30;;
21192;SDS011;10754;51.106;7.164;2023-06-04T05:56:41;1.20;;;0.90;;
21192;SDS011;10754;51.106;7.164;2023-06-04T05:59:06;1.75;;;0.70;;
21192;SDS011;10754;51.106;7.164;2023-06-04T06:01:32;1.10;;;0.98;;
21192;SDS011;10754;51.106;7.164;2023-06-04T06:03:57;3.17;;;1.10;;
21192;SDS011;10754;51.106;7.164;2023-06-04T06:06:23;2.97;;;1.00;;
21192;SDS011;10754;51.106;7.164;2023-06-04T06:08:48;1.13;;;0.70;;
21192;SDS011;10754;51.106;7.164;2023-06-04T06:11:15;2.00;;;1.20;;
21192;SDS011;10754;51.106;7.164;2023-06-04T06:13:40;1.35;;;1.23;;
21192;SDS011;10754;51.106;7.164;2023-06-04T06:16:06;2.15;;;1.02;;
21192;SDS011;10754;51.106;7.164;2023-06-04T06:18:31;2.85;;;0.90;;
21192;SDS011;10754;51.106;7.164;2023-06-04T06:20:58;2.65;;;2.28;;
21192;SDS011;10754;51.106;7.164;2023-06-04T06:23:23;2.03;;;1.10;;
21192;SDS011;10754;51.106;7.164;2023-06-04T06:25:49;1.98;;;1.00;;
21192;SDS011;10754;51.106;7.164;2023-06-04T06:28:17;0.98;;;0.80;;
21192;SDS011;10754;51.106;7.164;2023-06-04T06:30:43;1.13;;;0.90;;
21192;SDS011;10754;51.106;7.164;2023-06-04T06:33:09;3.00;;;1.23;;
21192;SDS011;10754;51.106;7.164;2023-06-04T06:35:35;1.42;;;1.08;;
21192;SDS011;10754;51.106;7.164;2023-06-04T06:38:00;2.53;;;1.20;;
21192;SDS011;10754;51.106;7.164;2023-06-04T06:40:26;4.38;;;1.08;;
21192;SDS011;10754;51.106;7.164;2023-06-04T06:42:52;1.20;;;1.10;;
21192;SDS011;10754;51.106;7.164;2023-06-04T06:45:17;1.77;;;1.13;;
21192;SDS011;10754;51.106;7.164;2023-06-04T06:47:44;1.73;;;1.10;;
21192;SDS011;10754;51.106;7.164;2023-06-04T06:50:09;2.25;;;0.80;;
21192;SDS011;10754;51.106;7.164;2023-06-04T06:52:35;1.33;;;1.10;;
21192;SDS011;10754;51.106;7.164;2023-06-04T06:55:02;2.15;;;1.20;;
21192;SDS011;10754;51.106;7.164;2023-06-04T06:57:29;1.38;;;0.93;;
21192;SDS011;10754;51.106;7.164;2023-06-04T06:59:55;2.25;;;1.17;;
21192;SDS011;10754;51.106;7.164;2023-06-04T07:02:20;2.97;;;1.00;;
21192;SDS011;10754;51.106;7.164;2023-06-04T07:04:46;2.13;;;1.27;;
21192;SDS011;10754;51.106;7.164;2023-06-04T07:07:12;1.92;;;1.15;;
21192;SDS011;10754;51.106;7.164;2023-06-04T07:09:37;2.05;;;1.05;;
21192;SDS011;10754;51.106;7.164;2023-06-04T07:12:03;1.17;;;1.08;;
21192;SDS011;10754;51.106;7.164;2023-06-04T07:14:29;1.33;;;1.00;;
21192;SDS011;10754;51.106;7.164;2023-06-04T07:16:54;3.05;;;0.95;;
21192;SDS011;10754;51.106;7.164;2023-06-04T07:19:20;1.58;;;1.10;;
21192;SDS011;10754;51.106;7.164;2023-06-04T07:21:45;1.98;;;1.10;;
21192;SDS011;10754;51.106;7.164;2023-06-04T07:24:11;2.72;;;1.10;;
21192;SDS011;10754;51.106;7.164;2023-06-04T07:26:36;1.48;;;0.98;;
21192;SDS011;10754;51.106;7.164;2023-06-04T07:29:02;1.67;;;1.02;;
21192;SDS011;10754;51.106;7.164;2023-06-04T07:31:27;1.40;;;1.17;;
21192;SDS011;10754;51.106;7.164;2023-06-04T07:33:53;3.95;;;1.08;;
21192;SDS011;10754;51.106;7.164;2023-06-04T07:36:18;2.25;;;1.10;;
21192;SDS011;10754;51.106;7.164;2023-06-04T07:38:45;1.80;;;0.90;;
21192;SDS011;10754;51.106;7.164;2023-06-04T07:41:11;1.42;;;1.13;;
21192;SDS011;10754;51.106;7.164;2023-06-04T07:43:36;3.40;;;1.30;;
21192;SDS011;10754;51.106;7.164;2023-06-04T07:46:02;1.98;;;1.10;;
21192;SDS011;10754;51.106;7.164;2023-06-04T07:48:28;2.50;;;1.00;;
21192;SDS011;10754;51.106;7.164;2023-06-04T07:51:00;1.98;;;1.10;;
21192;SDS011;10754;51.106;7.164;2023-06-04T07:53:27;2.10;;;1.13;;
21192;SDS011;10754;51.106;7.164;2023-06-04T07:55:53;3.63;;;1.00;;
21192;SDS011;10754;51.106;7.164;2023-06-04T07:58:18;2.25;;;0.70;;
21192;SDS011;10754;51.106;7.164;2023-06-04T08:00:44;1.05;;;0.93;;
21192;SDS011;10754;51.106;7.164;2023-06-04T08:03:10;2.08;;;1.30;;
21192;SDS011;10754;51.106;7.164;2023-06-04T08:05:35;4.25;;;1.05;;
21192;SDS011;10754;51.106;7.164;2023-06-04T08:08:01;1.17;;;0.88;;
21192;SDS011;10754;51.106;7.164;2023-06-04T08:10:28;2.53;;;1.15;;
21192;SDS011;10754;51.106;7.164;2023-06-04T08:12:54;1.27;;;0.80;;
21192;SDS011;10754;51.106;7.164;2023-06-04T08:15:20;1.35;;;0.93;;
21192;SDS011;10754;51.106;7.164;2023-06-04T08:17:45;1.75;;;0.95;;
21192;SDS011;10754;51.106;7.164;2023-06-04T08:20:10;2.38;;;1.20;;
21192;SDS011;10754;51.106;7.164;2023-06-04T08:22:36;1.33;;;0.80;;
21192;SDS011;10754;51.106;7.164;2023-06-04T08:25:02;2.22;;;0.90;;
21192;SDS011;10754;51.106;7.164;2023-06-04T08:27:29;4.90;;;1.02;;
21192;SDS011;10754;51.106;7.164;2023-06-04T08:29:55;5.47;;;1.17;;
21192;SDS011;10754;51.106;7.164;2023-06-04T08:32:22;1.15;;;0.85;;
21192;SDS011;10754;51.106;7.164;2023-06-04T08:34:48;2.53;;;1.30;;
21192;SDS011;10754;51.106;7.164;2023-06-04T08:37:14;2.28;;;0.77;;
21192;SDS011;10754;51.106;7.164;2023-06-04T08:39:40;2.05;;;1.00;;
21192;SDS011;10754;51.106;7.164;2023-06-04T08:42:06;2.92;;;0.90;;
21192;SDS011;10754;51.106;7.164;2023-06-04T08:44:33;1.40;;;0.70;;
21192;SDS011;10754;51.106;7.164;2023-06-04T08:47:03;1.08;;;0.77;;
21192;SDS011;10754;51.106;7.164;2023-06-04T08:49:34;1.20;;;0.98;;
21192;SDS011;10754;51.106;7.164;2023-06-04T08:52:03;2.35;;;1.00;;
21192;SDS011;10754;51.106;7.164;2023-06-04T08:54:30;1.38;;;0.70;;
21192;SDS011;10754;51.106;7.164;2023-06-04T08:56:57;1.98;;;1.05;;
21192;SDS011;10754;51.106;7.164;2023-06-04T08:59:23;1.48;;;0.95;;
21192;SDS011;10754;51.106;7.164;2023-06-04T09:01:51;2.95;;;0.98;;
21192;SDS011;10754;51.106;7.164;2023-06-04T09:04:19;1.40;;;0.90;;
21192;SDS011;10754;51.106;7.164;2023-06-04T09:06:45;3.00;;;0.95;;
21192;SDS011;10754;51.106;7.164;2023-06-04T09:09:12;1.48;;;0.73;;
21192;SDS011;10754;51.106;7.164;2023-06-04T09:11:45;2.17;;;0.90;;
21192;SDS011;10754;51.106;7.164;2023-06-04T09:14:18;1.00;;;0.80;;
21192;SDS011;10754;51.106;7.164;2023-06-04T09:16:48;2.45;;;0.90;;
21192;SDS011;10754;51.106;7.164;2023-06-04T09:19:15;2.17;;;0.85;;
21192;SDS011;10754;51.106;7.164;2023-06-04T09:21:51;1.10;;;0.75;;
21192;SDS011;10754;51.106;7.164;2023-06-04T09:24:18;2.00;;;1.05;;
21192;SDS011;10754;51.106;7.164;2023-06-04T09:26:45;2.28;;;0.93;;
21192;SDS011;10754;51.106;7.164;2023-06-04T09:29:11;2.53;;;0.90;;
21192;SDS011;10754;51.106;7.164;2023-06-04T09:31:37;2.08;;;0.80;;
21192;SDS011;10754;51.106;7.164;2023-06-04T09:34:03;4.97;;;0.95;;
21192;SDS011;10754;51.106;7.164;2023-06-04T09:36:35;4.70;;;1.23;;
21192;SDS011;10754;51.106;7.164;2023-06-04T09:39:02;2.05;;;0.85;;
21192;SDS011;10754;51.106;7.164;2023-06-04T09:41:28;1.88;;;0.90;;
21192;SDS011;10754;51.106;7.164;2023-06-04T09:44:01;1.02;;;0.93;;
21192;SDS011;10754;51.106;7.164;2023-06-04T09:46:30;2.50;;;0.93;;
21192;SDS011;10754;51.106;7.164;2023-06-04T09:49:00;2.13;;;1.10;;
21192;SDS011;10754;51.106;7.164;2023-06-04T09:51:26;2.30;;;1.00;;
21192;SDS011;10754;51.106;7.164;2023-06-04T09:53:55;1.55;;;0.80;;
21192;SDS011;10754;51.106;7.164;2023-06-04T09:56:21;1.25;;;0.77;;
21192;SDS011;10754;51.106;7.164;2023-06-04T09:58:48;1.50;;;0.90;;
21192;SDS011;10754;51.106;7.164;2023-06-04T10:01:14;1.70;;;0.88;;
21192;SDS011;10754;51.106;7.164;2023-06-04T10:03:41;0.90;;;0.80;;
21192;SDS011;10754;51.106;7.164;2023-06-04T10:06:11;1.27;;;0.82;;
21192;SDS011;10754;51.106;7.164;2023-06-04T10:08:41;1.55;;;0.93;;
21192;SDS011;10754;51.106;7.164;2023-06-04T10:11:07;2.38;;;1.13;;
21192;SDS011;10754;51.106;7.164;2023-06-04T10:13:53;2.78;;;0.90;;
21192;SDS011;10754;51.106;7.164;2023-06-04T10:16:29;1.48;;;0.90;;
21192;SDS011;10754;51.106;7.164;2023-06-04T10:18:56;1.17;;;0.90;;
21192;SDS011;10754;51.106;7.164;2023-06-04T10:21:23;2.67;;;0.70;;
21192;SDS011;10754;51.106;7.164;2023-06-04T10:23:50;1.63;;;0.90;;
21192;SDS011;10754;51.106;7.164;2023-06-04T10:26:16;1.80;;;0.88;;
21192;SDS011;10754;51.106;7.164;2023-06-04T10:28:42;1.73;;;0.90;;
21192;SDS011;10754;51.106;7.164;2023-06-04T10:31:11;2.47;;;1.00;;
21192;SDS011;10754;51.106;7.164;2023-06-04T10:33:37;1.55;;;0.75;;
21192;SDS011;10754;51.106;7.164;2023-06-04T10:36:19;1.25;;;0.90;;
21192;SDS011;10754;51.106;7.164;2023-06-04T10:38:46;1.27;;;0.80;;
21192;SDS011;10754;51.106;7.164;2023-06-04T10:41:15;2.38;;;0.80;;
21192;SDS011;10754;51.106;7.164;2023-06-04T10:43:43;3.15;;;1.08;;
21192;SDS011;10754;51.106;7.164;2023-06-04T10:46:14;2.17;;;0.70;;
21192;SDS011;10754;51.106;7.164;2023-06-04T10:48:47;1.15;;;1.00;;
21192;SDS011;10754;51.106;7.164;2023-06-04T10:51:38;2.30;;;0.90;;
21192;SDS011;10754;51.106;7.164;2023-06-04T10:54:03;2.97;;;1.00;;
21192;SDS011;10754;51.106;7.164;2023-06-04T10:56:29;2.03;;;0.73;;
21192;SDS011;10754;51.106;7.164;2023-06-04T10:59:00;2.28;;;0.60;;
21192;SDS011;10754;51.106;7.164;2023-06-04T11:01:37;1.70;;;0.90;;
21192;SDS011;10754;51.106;7.164;2023-06-04T11:04:03;2.15;;;0.80;;
21192;SDS011;10754;51.106;7.164;2023-06-04T11:06:29;1.58;;;0.70;;
21192;SDS011;10754;51.106;7.164;2023-06-04T11:09:02;3.10;;;0.80;;
21192;SDS011;10754;51.106;7.164;2023-06-04T11:11:28;1.13;;;0.70;;
21192;SDS011;10754;51.106;7.164;2023-06-04T11:13:54;2.95;;;0.90;;
21192;SDS011;10754;51.106;7.164;2023-06-04T11:16:20;1.50;;;1.00;;
21192;SDS011;10754;51.106;7.164;2023-06-04T11:18:55;1.15;;;0.93;;
21192;SDS011;10754;51.106;7.164;2023-06-04T11:21:22;5.25;;;1.08;;
21192;SDS011;10754;51.106;7.164;2023-06-04T11:23:48;1.92;;;0.90;;
21192;SDS011;10754;51.106;7.164;2023-06-04T11:26:19;1.80;;;0.80;;
21192;SDS011;10754;51.106;7.164;2023-06-04T11:28:48;2.25;;;0.90;;
21192;SDS011;10754;51.106;7.164;2023-06-04T11:31:14;3.05;;;1.08;;
21192;SDS011;10754;51.106;7.164;2023-06-04T11:33:46;1.55;;;0.88;;
21192;SDS011;10754;51.106;7.164;2023-06-04T11:36:25;1.35;;;0.90;;
21192;SDS011;10754;51.106;7.164;2023-06-04T11:41:26;2.08;;;0.98;;
21192;SDS011;10754;51.106;7.164;2023-06-04T11:43:54;3.90;;;0.93;;
21192;SDS011;10754;51.106;7.164;2023-06-04T11:46:20;1.10;;;0.73;;
21192;SDS011;10754;51.106;7.164;2023-06-04T11:48:46;1.33;;;0.90;;
21192;SDS011;10754;51.106;7.164;2023-06-04T11:51:12;1.05;;;0.70;;
21192;SDS011;10754;51.106;7.164;2023-06-04T11:53:37;0.80;;;0.70;;
21192;SDS011;10754;51.106;7.164;2023-06-04T11:56:04;1.85;;;1.00;;
21192;SDS011;10754;51.106;7.164;2023-06-04T11:58:30;2.42;;;0.93;;
21192;SDS011;10754;51.106;7.164;2023-06-04T12:00:57;3.88;;;1.10;;
21192;SDS011;10754;51.106;7.164;2023-06-04T12:03:37;1.58;;;0.90;;
21192;SDS011;10754;51.106;7.164;2023-06-04T12:06:11;1.52;;;1.00;;
21192;SDS011;10754;51.106;7.164;2023-06-04T12:08:53;1.65;;;0.90;;
21192;SDS011;10754;51.106;7.164;2023-06-04T12:13:58;1.40;;;0.80;;
21192;SDS011;10754;51.106;7.164;2023-06-04T12:16:40;1.38;;;0.93;;
21192;SDS011;10754;51.106;7.164;2023-06-04T12:21:36;1.65;;;0.80;;
21192;SDS011;10754;51.106;7.164;2023-06-04T12:24:08;0.77;;;0.73;;
21192;SDS011;10754;51.106;7.164;2023-06-04T12:26:36;2.20;;;1.08;;
21192;SDS011;10754;51.106;7.164;2023-06-04T12:29:15;3.47;;;1.00;;
21192;SDS011;10754;51.106;7.164;2023-06-04T12:31:43;2.00;;;1.10;;
21192;SDS011;10754;51.106;7.164;2023-06-04T12:34:10;1.30;;;1.20;;
21192;SDS011;10754;51.106;7.164;2023-06-04T12:36:37;1.30;;;1.00;;
21192;SDS011;10754;51.106;7.164;2023-06-04T12:39:04;2.15;;;1.10;;
21192;SDS011;10754;51.106;7.164;2023-06-04T12:41:31;3.10;;;1.00;;
21192;SDS011;10754;51.106;7.164;2023-06-04T12:43:58;2.17;;;1.00;;
21192;SDS011;10754;51.106;7.164;2023-06-04T12:46:24;1.55;;;1.15;;
21192;SDS011;10754;51.106;7.164;2023-06-04T12:48:50;3.10;;;1.00;;
21192;SDS011;10754;51.106;7.164;2023-06-04T12:51:17;3.95;;;1.00;;
21192;SDS011;10754;51.106;7.164;2023-06-04T12:53:43;1.55;;;1.00;;
21192;SDS011;10754;51.106;7.164;2023-06-04T12:56:09;2.67;;;1.20;;
21192;SDS011;10754;51.106;7.164;2023-06-04T12:58:35;3.45;;;0.90;;
21192;SDS011;10754;51.106;7.164;2023-06-04T13:01:01;1.30;;;1.17;;
21192;SDS011;10754;51.106;7.164;2023-06-04T13:03:27;1.73;;;1.00;;
21192;SDS011;10754;51.106;7.164;2023-06-04T13:05:52;1.20;;;1.10;;
21192;SDS011;10754;51.106;7.164;2023-06-04T13:08:19;1.88;;;0.80;;
21192;SDS011;10754;51.106;7.164;2023-06-04T13:10:48;1.40;;;0.85;;
21192;SDS011;10754;51.106;7.164;2023-06-04T13:13:15;2.83;;;0.85;;
21192;SDS011;10754;51.106;7.164;2023-06-04T13:15:41;4.70;;;1.50;;
21192;SDS011;10754;51.106;7.164;2023-06-04T13:18:08;5.57;;;1.30;;
21192;SDS011;10754;51.106;7.164;2023-06-04T13:20:34;1.88;;;1.08;;
21192;SDS011;10754;51.106;7.164;2023-06-04T13:23:00;1.13;;;0.98;;
21192;SDS011;10754;51.106;7.164;2023-06-04T13:25:26;2.75;;;1.00;;
21192;SDS011;10754;51.106;7.164;2023-06-04T13:27:53;1.30;;;0.85;;
21192;SDS011;10754;51.106;7.164;2023-06-04T13:30:19;1.90;;;0.90;;
21192;SDS011;10754;51.106;7.164;2023-06-04T13:32:44;2.25;;;1.00;;
21192;SDS011;10754;51.106;7.164;2023-06-04T13:35:10;3.05;;;1.10;;
21192;SDS011;10754;51.106;7.164;2023-06-04T13:37:35;1.48;;;1.10;;
21192;SDS011;10754;51.106;7.164;2023-06-04T13:40:01;0.80;;;0.73;;
21192;SDS011;10754;51.106;7.164;2023-06-04T13:42:26;1.90;;;0.75;;
21192;SDS011;10754;51.106;7.164;2023-06-04T13:44:52;1.15;;;0.80;;
21192;SDS011;10754;51.106;7.164;2023-06-04T13:47:17;1.23;;;1.00;;
21192;SDS011;10754;51.106;7.164;2023-06-04T13:49:43;1.55;;;1.00;;
21192;SDS011;10754;51.106;7.164;2023-06-04T13:52:08;1.20;;;0.80;;
21192;SDS011;10754;51.106;7.164;2023-06-04T13:54:34;1.02;;;0.80;;
21192;SDS011;10754;51.106;7.164;2023-06-04T13:57:03;1.30;;;1.00;;
21192;SDS011;10754;51.106;7.164;2023-06-04T13:59:28;1.38;;;1.02;;
21192;SDS011;10754;51.106;7.164;2023-06-04T14:01:56;1.23;;;0.90;;
21192;SDS011;10754;51.106;7.164;2023-06-04T14:04:21;2.45;;;1.40;;
21192;SDS011;10754;51.106;7.164;2023-06-04T14:06:47;3.28;;;1.48;;
21192;SDS011;10754;51.106;7.164;2023-06-04T14:09:12;5.00;;;1.90;;
21192;SDS011;10754;51.106;7.164;2023-06-04T14:11:38;3.45;;;1.80;;
21192;SDS011;10754;51.106;7.164;2023-06-04T14:14:04;1.42;;;1.13;;
21192;SDS011;10754;51.106;7.164;2023-06-04T14:16:29;1.00;;;0.80;;
21192;SDS011;10754;51.106;7.164;2023-06-04T14:18:55;2.10;;;0.85;;
21192;SDS011;10754;51.106;7.164;2023-06-04T14:21:20;2.22;;;1.35;;
21192;SDS011;10754;51.106;7.164;2023-06-04T14:23:47;2.90;;;1.33;;
21192;SDS011;10754;51.106;7.164;2023-06-04T14:26:12;1.95;;;1.40;;
21192;SDS011;10754;51.106;7.164;2023-06-04T14:28:38;2.22;;;1.30;;
21192;SDS011;10754;51.106;7.164;2023-06-04T14:31:04;2.53;;;1.30;;
21192;SDS011;10754;51.106;7.164;2023-06-04T14:33:29;2.42;;;1.10;;
21192;SDS011;10754;51.106;7.164;2023-06-04T14:35:55;6.45;;;1.83;;
21192;SDS011;10754;51.106;7.164;2023-06-04T14:38:21;1.45;;;1.05;;
21192;SDS011;10754;51.106;7.164;2023-06-04T14:40:46;1.70;;;1.00;;
21192;SDS011;10754;51.106;7.164;2023-06-04T14:43:12;1.55;;;1.20;;
21192;SDS011;10754;51.106;7.164;2023-06-04T14:45:37;2.70;;;1.17;;
21192;SDS011;10754;51.106;7.164;2023-06-04T14:48:04;4.20;;;1.20;;
21192;SDS011;10754;51.106;7.164;2023-06-04T14:50:30;3.20;;;1.10;;
21192;SDS011;10754;51.106;7.164;2023-06-04T14:52:56;1.60;;;1.17;;
21192;SDS011;10754;51.106;7.164;2023-06-04T14:55:21;1.52;;;1.00;;
21192;SDS011;10754;51.106;7.164;2023-06-04T14:57:48;1.73;;;0.80;;